createdAt,value
2023-02-16T00:02:11.529Z,23.62
2023-02-16T00:04:38.270Z,23.95
2023-02-16T00:07:04.952Z,23.66
2023-02-16T00:09:31.642Z,22.59
2023-02-16T00:11:58.418Z,22.74
2023-02-16T00:14:25.309Z,22.10
2023-02-16T00:16:56.057Z,22.63
2023-02-16T00:19:23.891Z,22.12
2023-02-16T00:21:51.946Z,21.95
2023-02-16T00:24:18.686Z,22.62
2023-02-16T00:26:45.462Z,22.19
2023-02-16T00:29:23.981Z,21.42
2023-02-16T00:31:52.288Z,21.46
2023-02-16T00:34:34.033Z,21.85
2023-02-16T00:37:05.168Z,20.80
2023-02-16T00:39:31.892Z,21.02
2023-02-16T00:42:01.288Z,20.35
2023-02-16T00:44:36.302Z,20.12
2023-02-16T00:47:27.508Z,19.92
2023-02-16T00:49:54.756Z,19.92
2023-02-16T00:52:38.048Z,19.43
2023-02-16T00:55:12.476Z,19.05
2023-02-16T00:57:41.101Z,19.19
2023-02-16T01:00:23.799Z,18.26
2023-02-16T01:02:51.618Z,17.56
2023-02-16T01:05:19.019Z,17.24
2023-02-16T01:07:45.867Z,16.79
2023-02-16T01:10:12.547Z,16.68
2023-02-16T01:12:39.305Z,16.18
2023-02-16T01:15:06.211Z,16.29
2023-02-16T01:17:33.320Z,15.85
2023-02-16T01:20:00.192Z,16.08
2023-02-16T01:22:27.313Z,15.73
2023-02-16T01:24:54.175Z,15.44
2023-02-16T01:27:21.216Z,15.77
2023-02-16T01:29:49.349Z,15.86
2023-02-16T01:32:16.167Z,15.28
2023-02-16T01:34:43.040Z,15.54
2023-02-16T01:37:15.895Z,15.28
2023-02-16T01:39:42.937Z,15.68
2023-02-16T01:42:47.752Z,14.83
2023-02-16T01:45:17.417Z,14.96
2023-02-16T01:47:55.995Z,15.08
2023-02-16T01:50:24.538Z,15.08
2023-02-16T01:53:04.414Z,15.43
2023-02-16T01:55:36.586Z,14.44
2023-02-16T01:58:34.945Z,15.09
2023-02-16T02:01:01.679Z,14.94
2023-02-16T02:03:33.520Z,15.06
2023-02-16T02:06:00.217Z,14.80
2023-02-16T02:08:35.568Z,14.59
2023-02-16T02:11:24.837Z,15.83
2023-02-16T02:13:54.842Z,15.21
2023-02-16T02:16:22.252Z,15.59
2023-02-16T02:18:49.802Z,15.60
2023-02-16T02:21:31.654Z,16.00
2023-02-16T02:24:32.481Z,15.66
2023-02-16T02:27:31.828Z,15.12
2023-02-16T02:30:23.038Z,15.25
2023-02-16T02:33:09.664Z,14.89
2023-02-16T02:35:51.506Z,14.63
2023-02-16T02:38:32.342Z,18.20
2023-02-16T02:41:30.799Z,14.43
2023-02-16T02:44:00.337Z,13.46
2023-02-16T02:46:29.650Z,13.93
2023-02-16T02:48:57.733Z,13.74
2023-02-16T02:51:24.749Z,13.64
2023-02-16T02:54:11.248Z,13.62
2023-02-16T02:56:37.993Z,13.85
2023-02-16T02:59:06.882Z,13.57
2023-02-16T03:01:33.654Z,13.86
2023-02-16T03:04:00.422Z,13.83
2023-02-16T03:06:29.769Z,13.79
2023-02-16T03:09:00.957Z,13.86
2023-02-16T03:11:27.962Z,14.21
2023-02-16T03:14:02.347Z,13.69
2023-02-16T03:16:32.740Z,14.05
2023-02-16T03:18:59.570Z,13.84
2023-02-16T03:21:26.490Z,14.11
2023-02-16T03:23:53.165Z,13.55
2023-02-16T03:26:20.024Z,13.95
2023-02-16T03:28:46.728Z,14.16
2023-02-16T03:31:22.148Z,13.73
2023-02-16T03:33:49.280Z,13.61
2023-02-16T03:36:15.998Z,12.91
2023-02-16T03:38:42.684Z,13.01
2023-02-16T03:41:09.381Z,13.48
2023-02-16T03:43:36.095Z,13.67
2023-02-16T03:46:02.875Z,13.27
2023-02-16T03:48:29.921Z,12.99
2023-02-16T03:50:56.676Z,13.20
2023-02-16T03:53:23.625Z,13.45
2023-02-16T03:55:50.346Z,12.95
2023-02-16T03:58:18.988Z,12.41
2023-02-16T04:00:46.946Z,12.43
2023-02-16T04:03:13.714Z,12.64
2023-02-16T04:05:40.389Z,12.08
2023-02-16T04:08:07.178Z,11.83
2023-02-16T04:10:34.811Z,12.27
2023-02-16T04:13:21.870Z,11.96
2023-02-16T04:16:01.137Z,11.79
2023-02-16T04:18:28.210Z,11.37
2023-02-16T04:20:55.957Z,11.31
2023-02-16T04:23:23.070Z,11.51
2023-02-16T04:25:50.149Z,10.96
2023-02-16T04:28:17.225Z,11.01
2023-02-16T04:30:44.048Z,11.24
2023-02-16T04:33:11.110Z,10.84
2023-02-16T04:35:38.197Z,10.00
2023-02-16T04:38:04.866Z,9.30
2023-02-16T04:40:31.938Z,9.66
2023-02-16T04:42:59.738Z,8.83
2023-02-16T04:45:26.987Z,8.40
2023-02-16T04:47:54.069Z,8.66
2023-02-16T04:50:20.783Z,8.51
2023-02-16T04:52:47.473Z,8.18
2023-02-16T04:55:14.164Z,8.52
2023-02-16T04:57:41.355Z,7.97
2023-02-16T05:00:09.054Z,7.89
2023-02-16T05:02:36.187Z,8.38
2023-02-16T05:05:02.892Z,8.03
2023-02-16T05:07:29.566Z,7.51
2023-02-16T05:09:56.330Z,7.02
2023-02-16T05:12:24.133Z,7.21
2023-02-16T05:14:50.825Z,7.23
2023-02-16T05:17:19.281Z,7.36
2023-02-16T05:19:48.024Z,6.96
2023-02-16T05:22:14.827Z,7.01
2023-02-16T05:24:41.622Z,7.19
2023-02-16T05:27:19.720Z,7.23
2023-02-16T05:29:46.472Z,7.10
2023-02-16T05:32:13.340Z,7.11
2023-02-16T05:34:40.143Z,7.26
2023-02-16T05:37:06.904Z,7.63
2023-02-16T05:39:34.634Z,7.43
2023-02-16T05:42:01.359Z,7.69
2023-02-16T05:44:28.133Z,7.75
2023-02-16T05:46:55.676Z,10.89
2023-02-16T05:49:22.384Z,11.30
2023-02-16T05:51:50.546Z,7.38
2023-02-16T05:54:17.330Z,7.54
2023-02-16T05:56:48.416Z,7.40
2023-02-16T05:59:15.216Z,7.68
2023-02-16T06:01:43.137Z,8.38
2023-02-16T06:04:10.442Z,9.14
2023-02-16T06:06:37.967Z,8.68
2023-02-16T06:09:05.786Z,8.44
2023-02-16T06:11:32.556Z,8.21
2023-02-16T06:13:59.630Z,8.50
2023-02-16T06:16:26.788Z,8.22
2023-02-16T06:18:53.977Z,7.90
2023-02-16T06:21:21.328Z,8.31
2023-02-16T06:23:48.186Z,7.93
2023-02-16T06:26:15.654Z,7.92
2023-02-16T06:28:42.686Z,8.13
2023-02-16T06:31:20.712Z,7.59
2023-02-16T06:33:48.102Z,7.61
2023-02-16T06:36:16.539Z,8.06
2023-02-16T06:38:43.798Z,7.38
2023-02-16T06:41:11.639Z,7.59
2023-02-16T06:43:41.441Z,7.29
2023-02-16T06:46:11.097Z,7.87
2023-02-16T06:48:38.194Z,7.45
2023-02-16T06:51:05.313Z,7.89
2023-02-16T06:53:32.266Z,7.15
2023-02-16T06:55:59.340Z,7.92
2023-02-16T06:58:26.498Z,7.56
2023-02-16T07:00:55.348Z,7.37
2023-02-16T07:03:22.132Z,7.64
2023-02-16T07:05:49.462Z,7.78
2023-02-16T07:08:16.618Z,8.04
2023-02-16T07:10:49.981Z,7.94
2023-02-16T07:13:17.622Z,7.76
2023-02-16T07:15:45.800Z,8.80
2023-02-16T07:18:12.801Z,8.11
2023-02-16T07:20:39.978Z,7.63
2023-02-16T07:23:07.738Z,7.81
2023-02-16T07:25:39.861Z,7.40
2023-02-16T07:28:06.881Z,7.50
2023-02-16T07:30:34.427Z,7.93
2023-02-16T07:33:01.363Z,8.04
2023-02-16T07:35:28.443Z,7.73
2023-02-16T07:37:55.241Z,7.40
2023-02-16T07:40:22.520Z,9.33
2023-02-16T07:42:49.250Z,7.73
2023-02-16T07:45:18.298Z,7.52
2023-02-16T07:47:46.326Z,8.03
2023-02-16T07:50:14.270Z,8.12
2023-02-16T07:52:44.789Z,8.89
2023-02-16T07:55:11.989Z,9.11
2023-02-16T07:57:39.403Z,9.13
2023-02-16T08:00:08.558Z,9.89
2023-02-16T08:02:35.782Z,10.86
2023-02-16T08:05:02.670Z,10.65
2023-02-16T08:07:29.485Z,10.85
2023-02-16T08:09:58.994Z,10.59
2023-02-16T08:12:28.460Z,10.16
2023-02-16T08:14:55.769Z,10.34
2023-02-16T08:17:25.501Z,10.65
2023-02-16T08:19:55.226Z,10.02
2023-02-16T08:22:22.302Z,9.88
2023-02-16T08:24:49.054Z,10.37
2023-02-16T08:27:15.885Z,11.15
2023-02-16T08:29:43.118Z,11.43
2023-02-16T08:32:14.131Z,11.37
2023-02-16T08:34:43.703Z,10.88
2023-02-16T08:37:11.942Z,11.82
2023-02-16T08:39:39.160Z,11.97
2023-02-16T08:42:06.708Z,11.77
2023-02-16T08:44:37.176Z,13.46
2023-02-16T08:47:03.862Z,14.07
2023-02-16T08:49:31.665Z,13.60
2023-02-16T08:52:05.706Z,13.40
2023-02-16T08:54:33.097Z,13.46
2023-02-16T08:57:00.224Z,13.45
2023-02-16T08:59:28.738Z,14.22
2023-02-16T09:01:58.446Z,13.93
2023-02-16T09:04:25.327Z,14.20
2023-02-16T09:06:52.143Z,15.22
2023-02-16T09:09:19.568Z,15.64
2023-02-16T09:11:46.324Z,15.96
2023-02-16T09:14:19.203Z,15.93
2023-02-16T09:16:47.300Z,16.89
2023-02-16T09:19:33.872Z,16.37
2023-02-16T09:22:05.878Z,17.39
2023-02-16T09:24:41.914Z,18.26
2023-02-16T09:27:09.374Z,19.57
2023-02-16T09:29:37.143Z,21.08
2023-02-16T09:32:04.605Z,22.63
2023-02-16T09:34:32.439Z,22.95
2023-02-16T09:36:59.728Z,24.07
2023-02-16T09:39:27.227Z,24.14
2023-02-16T09:42:21.800Z,23.33
2023-02-16T09:45:05.061Z,22.77
2023-02-16T09:47:40.864Z,23.61
2023-02-16T09:53:36.361Z,24.97
2023-02-16T09:56:10.762Z,24.49
2023-02-16T09:58:48.554Z,23.72
2023-02-16T10:01:19.198Z,23.32
2023-02-16T10:04:31.294Z,23.51
2023-02-16T10:07:24.596Z,23.28
2023-02-16T10:09:53.457Z,23.50
2023-02-16T10:12:26.985Z,23.83
2023-02-16T10:15:01.026Z,23.35
2023-02-16T10:17:41.004Z,24.29
2023-02-16T10:20:17.883Z,24.89
2023-02-16T10:23:26.074Z,26.20
2023-02-16T10:26:08.988Z,26.29
2023-02-16T10:28:53.169Z,25.62
2023-02-16T10:31:40.866Z,23.92
2023-02-16T10:34:29.740Z,23.86
2023-02-16T10:37:27.689Z,26.57
2023-02-16T10:40:18.248Z,27.48
2023-02-16T10:43:14.165Z,27.35
2023-02-16T10:46:05.858Z,28.52
2023-02-16T10:48:33.590Z,27.39
2023-02-16T10:51:11.060Z,26.65
2023-02-16T10:53:49.859Z,29.16
2023-02-16T10:56:34.719Z,28.91
2023-02-16T10:59:01.454Z,27.34
2023-02-16T11:01:38.889Z,26.70
2023-02-16T11:04:06.873Z,25.96
2023-02-16T11:06:36.419Z,24.93
2023-02-16T11:09:04.614Z,23.13
2023-02-16T11:11:39.219Z,21.84
2023-02-16T11:14:20.385Z,20.73
2023-02-16T11:16:47.622Z,19.87
2023-02-16T11:19:20.694Z,17.87
2023-02-16T11:21:56.923Z,18.86
2023-02-16T11:24:26.749Z,17.58
2023-02-16T11:27:20.206Z,19.31
2023-02-16T11:29:52.062Z,21.25
2023-02-16T11:32:46.336Z,20.09
2023-02-16T11:35:16.254Z,22.02
2023-02-16T11:37:44.382Z,21.39
2023-02-16T11:40:23.486Z,20.65
2023-02-16T11:42:52.174Z,18.44
2023-02-16T11:45:32.863Z,18.00
2023-02-16T11:48:14.735Z,17.34
2023-02-16T11:50:58.645Z,16.72
2023-02-16T11:53:33.198Z,17.16
2023-02-16T11:56:12.844Z,16.53
2023-02-16T11:58:42.614Z,15.08
2023-02-16T12:01:20.471Z,17.14
2023-02-16T12:04:05.328Z,17.41
2023-02-16T12:07:04.003Z,18.28
2023-02-16T12:09:50.066Z,19.26
2023-02-16T12:12:19.376Z,18.78
2023-02-16T12:15:16.582Z,19.15
2023-02-16T12:17:45.036Z,20.71
2023-02-16T12:21:05.545Z,18.64
2023-02-16T12:23:55.290Z,18.48
2023-02-16T12:26:31.758Z,18.71
2023-02-16T12:29:23.893Z,18.44
2023-02-16T12:32:09.387Z,18.94
2023-02-16T12:35:23.496Z,20.26
2023-02-16T12:38:38.138Z,19.91
2023-02-16T12:41:26.588Z,19.75
2023-02-16T12:43:55.955Z,19.78
2023-02-16T12:46:39.883Z,20.41
2023-02-16T12:49:14.489Z,18.73
2023-02-16T12:52:10.880Z,18.24
2023-02-16T12:54:49.647Z,18.28
2023-02-16T12:57:19.637Z,17.25
2023-02-16T12:59:54.453Z,16.33
2023-02-16T13:02:41.873Z,16.11
2023-02-16T13:05:16.422Z,16.12
2023-02-16T13:07:45.057Z,14.75
2023-02-16T13:10:21.102Z,14.10
2023-02-16T13:12:54.521Z,13.47
2023-02-16T13:15:36.097Z,13.30
2023-02-16T13:18:39.692Z,13.76
2023-02-16T13:21:11.637Z,13.46
2023-02-16T13:23:42.352Z,14.36
2023-02-16T13:26:18.959Z,14.05
2023-02-16T13:29:08.989Z,13.69
2023-02-16T13:32:21.039Z,12.26
2023-02-16T13:35:12.658Z,12.51
2023-02-16T13:38:26.747Z,13.59
2023-02-16T13:41:11.897Z,12.56
2023-02-16T13:43:43.154Z,13.31
2023-02-16T13:46:20.738Z,12.14
2023-02-16T13:48:48.798Z,13.21
2023-02-16T13:51:17.874Z,12.17
2023-02-16T13:54:00.076Z,10.65
2023-02-16T13:56:29.828Z,10.91
2023-02-16T13:59:00.561Z,8.87
2023-02-16T14:01:34.363Z,8.71
2023-02-16T14:04:03.120Z,8.66
2023-02-16T14:06:31.155Z,9.21
2023-02-16T14:09:12.934Z,8.86
2023-02-16T14:11:51.859Z,9.31
2023-02-16T14:14:40.789Z,9.14
2023-02-16T14:17:19.900Z,9.61
2023-02-16T14:19:50.071Z,9.34
2023-02-16T14:22:19.643Z,9.76
2023-02-16T14:24:54.749Z,9.90
2023-02-16T14:27:43.709Z,10.59
2023-02-16T14:30:42.676Z,10.46
2023-02-16T14:33:41.373Z,10.47
2023-02-16T14:36:32.781Z,10.04
2023-02-16T14:38:59.720Z,10.57
2023-02-16T14:41:34.526Z,10.11
2023-02-16T14:44:24.142Z,9.90
2023-02-16T14:47:09.380Z,10.70
2023-02-16T14:50:04.502Z,11.40
2023-02-16T14:52:52.504Z,11.16
2023-02-16T14:55:59.941Z,11.95
2023-02-16T14:58:43.809Z,12.28
2023-02-16T15:01:15.467Z,12.80
2023-02-16T15:03:46.476Z,12.50
2023-02-16T15:06:21.856Z,13.25
2023-02-16T15:09:06.103Z,13.36
2023-02-16T15:11:37.247Z,13.28
2023-02-16T15:14:05.881Z,13.61
2023-02-16T15:16:34.006Z,13.23
2023-02-16T15:19:03.155Z,13.85
2023-02-16T15:21:29.836Z,13.92
2023-02-16T15:23:58.464Z,15.09
2023-02-16T15:26:27.425Z,14.58
2023-02-16T15:28:58.649Z,15.71
2023-02-16T15:31:32.235Z,15.76
2023-02-16T15:34:05.013Z,15.41
2023-02-16T15:36:39.343Z,15.63
2023-02-16T15:39:14.018Z,16.34
2023-02-16T15:41:43.593Z,15.99
2023-02-16T15:44:28.927Z,15.60
2023-02-16T15:47:08.875Z,15.47
2023-02-16T15:49:36.737Z,15.05
2023-02-16T15:52:12.199Z,16.00
2023-02-16T15:54:39.603Z,14.98
2023-02-16T15:57:31.906Z,14.95
2023-02-16T16:00:00.522Z,15.38
2023-02-16T16:02:38.805Z,15.72
2023-02-16T16:05:19.838Z,16.11
2023-02-16T16:07:47.817Z,16.35
2023-02-16T16:10:26.298Z,16.14
2023-02-16T16:12:54.560Z,17.10
2023-02-16T16:15:24.738Z,16.04
2023-02-16T16:17:52.614Z,15.78
2023-02-16T16:20:38.229Z,15.31
2023-02-16T16:23:38.461Z,14.94
2023-02-16T16:26:19.658Z,14.92
2023-02-16T16:28:49.478Z,15.01
2023-02-16T16:31:45.714Z,14.48
2023-02-16T16:34:30.480Z,14.83
2023-02-16T16:36:58.265Z,14.86
2023-02-16T16:39:37.973Z,14.83
2023-02-16T16:42:29.971Z,15.37
2023-02-16T16:45:06.316Z,15.71
2023-02-16T16:47:42.164Z,15.82
2023-02-16T16:50:20.839Z,14.67
2023-02-16T16:52:53.789Z,14.79
2023-02-16T16:55:30.813Z,14.43
2023-02-16T16:58:05.504Z,14.86
2023-02-16T17:00:33.930Z,15.42
2023-02-16T17:03:01.762Z,14.66
2023-02-16T17:05:29.347Z,15.23
2023-02-16T17:07:56.327Z,15.35
2023-02-16T17:10:25.565Z,14.92
2023-02-16T17:12:55.030Z,14.89
2023-02-16T17:15:54.352Z,14.41
2023-02-16T17:18:21.808Z,14.45
2023-02-16T17:20:51.570Z,14.89
2023-02-16T17:23:19.681Z,14.62
2023-02-16T17:25:50.139Z,14.42
2023-02-16T17:28:17.367Z,15.81
2023-02-16T17:30:44.129Z,16.81
2023-02-16T17:33:10.869Z,16.95
2023-02-16T17:35:38.214Z,17.45
2023-02-16T17:38:18.106Z,18.19
2023-02-16T17:40:47.618Z,17.23
2023-02-16T17:43:14.458Z,17.23
2023-02-16T17:45:42.914Z,17.44
2023-02-16T17:48:26.501Z,17.31
2023-02-16T17:50:54.724Z,16.82
2023-02-16T17:53:23.160Z,17.30
2023-02-16T17:55:50.860Z,16.91
2023-02-16T17:58:17.681Z,15.35
2023-02-16T18:00:44.664Z,15.87
2023-02-16T18:03:11.337Z,16.49
2023-02-16T18:05:38.242Z,16.50
2023-02-16T18:08:05.005Z,23.02
2023-02-16T18:10:47.795Z,26.56
2023-02-16T18:13:14.517Z,23.93
2023-02-16T18:15:42.756Z,16.68
2023-02-16T18:18:09.477Z,17.01
2023-02-16T18:20:36.633Z,16.08
2023-02-16T18:23:03.504Z,16.02
2023-02-16T18:25:31.843Z,16.45
2023-02-16T18:27:59.267Z,15.83
2023-02-16T18:30:26.161Z,17.06
2023-02-16T18:32:52.913Z,15.33
2023-02-16T18:35:19.805Z,15.64
2023-02-16T18:37:46.756Z,16.82
2023-02-16T18:40:16.142Z,18.98
2023-02-16T18:42:42.840Z,16.02
2023-02-16T18:45:09.875Z,15.58
2023-02-16T18:47:36.619Z,19.44
2023-02-16T18:50:04.628Z,18.21
2023-02-16T18:52:33.533Z,18.74
2023-02-16T18:55:00.621Z,27.58
2023-02-16T18:57:27.322Z,21.48
2023-02-16T18:59:54.530Z,18.83
2023-02-16T19:02:21.576Z,19.19
2023-02-16T19:04:48.394Z,20.64
2023-02-16T19:07:15.537Z,19.32
2023-02-16T19:09:42.292Z,20.05
2023-02-16T19:12:09.764Z,20.06
2023-02-16T19:14:40.870Z,20.14
2023-02-16T19:17:08.051Z,20.07
2023-02-16T19:19:35.928Z,20.20
2023-02-16T19:22:03.222Z,19.67
2023-02-16T19:24:30.050Z,19.62
2023-02-16T19:26:57.447Z,19.19
2023-02-16T19:29:24.145Z,19.27
2023-02-16T19:31:51.110Z,19.54
2023-02-16T19:34:18.770Z,19.08
2023-02-16T19:36:52.610Z,20.01
2023-02-16T19:39:19.888Z,29.44
2023-02-16T19:41:46.602Z,25.34
2023-02-16T19:44:14.621Z,24.19
2023-02-16T19:46:41.508Z,28.47
2023-02-16T19:49:08.427Z,29.51
2023-02-16T19:51:35.554Z,22.86
2023-02-16T19:54:02.254Z,23.78
2023-02-16T19:56:29.313Z,21.69
2023-02-16T19:58:57.093Z,22.40
2023-02-16T20:01:24.761Z,22.01
2023-02-16T20:03:51.792Z,23.33
2023-02-16T20:06:22.766Z,25.99
2023-02-16T20:08:50.398Z,23.28
2023-02-16T20:11:17.966Z,22.60
2023-02-16T20:13:46.373Z,21.93
2023-02-16T20:16:14.089Z,21.98
2023-02-16T20:18:41.305Z,20.88
2023-02-16T20:21:10.513Z,21.21
2023-02-16T20:23:37.431Z,20.89
2023-02-16T20:26:10.343Z,20.33
2023-02-16T20:28:37.580Z,19.93
2023-02-16T20:31:09.458Z,20.13
2023-02-16T20:33:37.209Z,21.29
2023-02-16T20:36:04.882Z,20.82
2023-02-16T20:38:32.163Z,20.72
2023-02-16T20:40:58.855Z,20.80
2023-02-16T20:43:26.399Z,21.30
2023-02-16T20:45:53.106Z,21.27
2023-02-16T20:48:20.093Z,21.75
2023-02-16T20:50:52.203Z,20.58
2023-02-16T20:53:18.965Z,20.78
2023-02-16T20:55:45.864Z,20.90
2023-02-16T20:58:12.610Z,20.20
2023-02-16T21:00:39.378Z,20.61
2023-02-16T21:03:07.003Z,20.29
2023-02-16T21:05:34.797Z,21.31
2023-02-16T21:08:03.369Z,21.22
2023-02-16T21:10:30.551Z,21.15
2023-02-16T21:12:57.286Z,20.45
2023-02-16T21:15:25.237Z,20.97
2023-02-16T21:17:52.016Z,20.67
2023-02-16T21:20:20.260Z,20.74
2023-02-16T21:22:46.975Z,21.05
2023-02-16T21:25:13.884Z,20.80
2023-02-16T21:27:40.801Z,20.71
2023-02-16T21:30:11.171Z,20.92
2023-02-16T21:32:37.970Z,20.43
2023-02-16T21:35:05.082Z,20.88
2023-02-16T21:37:34.677Z,20.76
2023-02-16T21:40:01.854Z,21.31
2023-02-16T21:42:29.332Z,20.11
2023-02-16T21:44:56.678Z,19.87
2023-02-16T21:47:26.373Z,20.62
2023-02-16T21:49:53.663Z,21.01
2023-02-16T21:52:20.714Z,20.48
2023-02-16T21:54:47.949Z,19.75
2023-02-16T21:57:18.230Z,19.38
2023-02-16T21:59:45.087Z,19.78
2023-02-16T22:02:12.932Z,18.93
2023-02-16T22:04:42.303Z,18.48
2023-02-16T22:07:09.421Z,18.68
2023-02-16T22:09:39.761Z,17.50
2023-02-16T22:12:06.901Z,17.47
2023-02-16T22:14:33.853Z,17.39
2023-02-16T22:17:02.084Z,18.15
2023-02-16T22:19:29.302Z,17.75
2023-02-16T22:21:56.382Z,17.46
2023-02-16T22:24:25.972Z,17.40
2023-02-16T22:26:52.682Z,16.98
2023-02-16T22:29:19.773Z,16.56
2023-02-16T22:31:48.330Z,16.36
2023-02-16T22:34:17.226Z,16.29
2023-02-16T22:36:45.187Z,16.33
2023-02-16T22:39:16.994Z,15.92
2023-02-16T22:41:43.864Z,16.32
2023-02-16T22:44:10.709Z,16.09
2023-02-16T22:46:39.706Z,16.08
2023-02-16T22:49:06.764Z,16.07
2023-02-16T22:51:34.045Z,16.25
2023-02-16T22:54:01.186Z,15.82
2023-02-16T22:56:28.100Z,16.57
2023-02-16T22:58:57.605Z,16.77
2023-02-16T23:01:25.469Z,17.75
2023-02-16T23:03:53.538Z,17.27
2023-02-16T23:06:24.142Z,17.11
2023-02-16T23:08:56.604Z,16.04
2023-02-16T23:11:23.457Z,14.88
2023-02-16T23:13:50.242Z,15.25
2023-02-16T23:16:18.493Z,15.87
2023-02-16T23:18:48.227Z,15.15
2023-02-16T23:21:30.162Z,15.24
2023-02-16T23:23:58.006Z,15.11
2023-02-16T23:26:26.724Z,14.70
2023-02-16T23:28:54.700Z,14.26
2023-02-16T23:31:24.373Z,13.37
2023-02-16T23:33:51.513Z,13.65
2023-02-16T23:36:18.594Z,14.39
2023-02-16T23:38:45.302Z,14.75
2023-02-16T23:41:13.233Z,16.13
2023-02-16T23:43:42.377Z,16.12
2023-02-16T23:46:12.557Z,16.26
2023-02-16T23:48:47.002Z,16.11
2023-02-16T23:51:15.891Z,15.82
2023-02-16T23:53:42.690Z,15.11
2023-02-16T23:56:12.677Z,15.45
2023-02-16T23:58:40.187Z,14.94
